sensor_id;sensor_type;location;lat;lon;timestamp;temperature;humidity
45383;DHT22;42455;51.660;5.824;2023-05-02T00:01:36;13.8;88.0
45383;DHT22;42455;51.660;5.824;2023-05-02T00:06:42;13.8;88.0
45383;DHT22;42455;51.660;5.824;2023-05-02T00:11:49;13.8;88.5
45383;DHT22;42455;51.660;5.824;2023-05-02T00:16:55;13.8;88.5
45383;DHT22;42455;51.660;5.824;2023-05-02T00:22:01;13.8;88.5
45383;DHT22;42455;51.660;5.824;2023-05-02T00:27:07;13.8;88.5
45383;DHT22;42455;51.660;5.824;2023-05-02T00:32:13;13.8;88.5
45383;DHT22;42455;51.660;5.824;2023-05-02T00:37:20;13.8;88.5
45383;DHT22;42455;51.660;5.824;2023-05-02T00:42:26;13.8;88.5
45383;DHT22;42455;51.660;5.824;2023-05-02T00:47:32;13.8;88.5
45383;DHT22;42455;51.660;5.824;2023-05-02T00:52:37;13.8;88.5
45383;DHT22;42455;51.660;5.824;2023-05-02T00:57:43;13.8;88.5
45383;DHT22;42455;51.660;5.824;2023-05-02T01:03:15;13.8;88.5
45383;DHT22;42455;51.660;5.824;2023-05-02T01:08:39;13.8;88.5
45383;DHT22;42455;51.660;5.824;2023-05-02T01:13:08;13.7;88.5
45383;DHT22;42455;51.660;5.824;2023-05-02T01:18:11;13.7;88.5
45383;DHT22;42455;51.660;5.824;2023-05-02T01:23:34;13.6;88.5
45383;DHT22;42455;51.660;5.824;2023-05-02T01:28:46;13.6;88.5
45383;DHT22;42455;51.660;5.824;2023-05-02T01:33:29;13.6;89.0
45383;DHT22;42455;51.660;5.824;2023-05-02T01:38:37;13.6;89.0
45383;DHT22;42455;51.660;5.824;2023-05-02T01:43:39;13.6;89.0
45383;DHT22;42455;51.660;5.824;2023-05-02T01:48:46;13.5;89.0
45383;DHT22;42455;51.660;5.824;2023-05-02T01:53:51;13.5;89.0
45383;DHT22;42455;51.660;5.824;2023-05-02T01:58:58;13.5;89.0
45383;DHT22;42455;51.660;5.824;2023-05-02T02:04:04;13.5;89.0
45383;DHT22;42455;51.660;5.824;2023-05-02T02:09:09;13.4;89.0
45383;DHT22;42455;51.660;5.824;2023-05-02T02:14:19;13.4;89.0
45383;DHT22;42455;51.660;5.824;2023-05-02T02:19:23;13.4;89.0
45383;DHT22;42455;51.660;5.824;2023-05-02T02:24:31;13.4;89.5
45383;DHT22;42455;51.660;5.824;2023-05-02T02:29:34;13.4;89.5
45383;DHT22;42455;51.660;5.824;2023-05-02T02:34:41;13.4;89.5
45383;DHT22;42455;51.660;5.824;2023-05-02T02:40:02;13.4;89.5
45383;DHT22;42455;51.660;5.824;2023-05-02T02:45:13;13.4;89.5
45383;DHT22;42455;51.660;5.824;2023-05-02T02:50:22;13.4;89.5
45383;DHT22;42455;51.660;5.824;2023-05-02T02:55:11;13.4;90.0
45383;DHT22;42455;51.660;5.824;2023-05-02T03:00:14;13.4;90.0
45383;DHT22;42455;51.660;5.824;2023-05-02T03:05:16;13.4;90.0
45383;DHT22;42455;51.660;5.824;2023-05-02T03:10:22;13.4;90.0
45383;DHT22;42455;51.660;5.824;2023-05-02T03:15:52;13.4;90.0
45383;DHT22;42455;51.660;5.824;2023-05-02T03:20:34;13.4;90.0
45383;DHT22;42455;51.660;5.824;2023-05-02T03:25:41;13.4;90.5
45383;DHT22;42455;51.660;5.824;2023-05-02T03:30:47;13.3;90.5
45383;DHT22;42455;51.660;5.824;2023-05-02T03:35:53;13.2;90.5
45383;DHT22;42455;51.660;5.824;2023-05-02T03:40:59;13.2;91.0
45383;DHT22;42455;51.660;5.824;2023-05-02T03:46:08;13.1;91.0
45383;DHT22;42455;51.660;5.824;2023-05-02T03:51:12;13.0;91.0
45383;DHT22;42455;51.660;5.824;2023-05-02T03:56:18;13.0;91.5
45383;DHT22;42455;51.660;5.824;2023-05-02T04:01:24;13.0;91.5
45383;DHT22;42455;51.660;5.824;2023-05-02T04:06:30;13.0;91.5
45383;DHT22;42455;51.660;5.824;2023-05-02T04:11:37;12.9;91.5
45383;DHT22;42455;51.660;5.824;2023-05-02T04:16:46;12.9;91.5
45383;DHT22;42455;51.660;5.824;2023-05-02T04:21:49;12.9;91.5
45383;DHT22;42455;51.660;5.824;2023-05-02T04:26:55;12.8;91.0
45383;DHT22;42455;51.660;5.824;2023-05-02T04:32:01;12.8;91.0
45383;DHT22;42455;51.660;5.824;2023-05-02T04:37:08;12.7;90.5
45383;DHT22;42455;51.660;5.824;2023-05-02T04:42:14;12.7;90.5
45383;DHT22;42455;51.660;5.824;2023-05-02T04:47:19;12.7;90.5
45383;DHT22;42455;51.660;5.824;2023-05-02T04:52:25;12.7;90.5
45383;DHT22;42455;51.660;5.824;2023-05-02T04:57:31;12.6;90.0
45383;DHT22;42455;51.660;5.824;2023-05-02T05:02:38;12.6;90.0
45383;DHT22;42455;51.660;5.824;2023-05-02T05:07:44;12.5;90.0
45383;DHT22;42455;51.660;5.824;2023-05-02T05:12:50;12.5;89.5
45383;DHT22;42455;51.660;5.824;2023-05-02T05:17:56;12.4;89.5
45383;DHT22;42455;51.660;5.824;2023-05-02T05:23:03;12.5;90.0
45383;DHT22;42455;51.660;5.824;2023-05-02T05:28:09;12.5;90.0
45383;DHT22;42455;51.660;5.824;2023-05-02T05:33:15;12.6;90.0
45383;DHT22;42455;51.660;5.824;2023-05-02T05:38:21;12.6;90.0
45383;DHT22;42455;51.660;5.824;2023-05-02T05:43:27;12.6;90.0
45383;DHT22;42455;51.660;5.824;2023-05-02T05:48:33;12.6;89.5
45383;DHT22;42455;51.660;5.824;2023-05-02T05:53:40;12.6;89.5
45383;DHT22;42455;51.660;5.824;2023-05-02T05:58:46;12.6;89.5
45383;DHT22;42455;51.660;5.824;2023-05-02T06:03:52;12.7;89.5
45383;DHT22;42455;51.660;5.824;2023-05-02T06:08:59;12.7;89.5
45383;DHT22;42455;51.660;5.824;2023-05-02T06:14:05;12.7;89.5
45383;DHT22;42455;51.660;5.824;2023-05-02T06:19:11;12.8;89.5
45383;DHT22;42455;51.660;5.824;2023-05-02T06:24:17;12.8;89.0
45383;DHT22;42455;51.660;5.824;2023-05-02T06:29:23;12.8;89.0
45383;DHT22;42455;51.660;5.824;2023-05-02T06:34:30;12.8;88.5
45383;DHT22;42455;51.660;5.824;2023-05-02T06:39:35;12.7;88.5
45383;DHT22;42455;51.660;5.824;2023-05-02T06:44:40;12.7;88.0
45383;DHT22;42455;51.660;5.824;2023-05-02T06:49:46;12.7;87.5
45383;DHT22;42455;51.660;5.824;2023-05-02T06:54:51;12.7;87.0
45383;DHT22;42455;51.660;5.824;2023-05-02T06:59:57;12.6;86.5
45383;DHT22;42455;51.660;5.824;2023-05-02T07:05:04;12.6;86.0
45383;DHT22;42455;51.660;5.824;2023-05-02T07:10:10;12.6;86.0
45383;DHT22;42455;51.660;5.824;2023-05-02T07:15:16;12.7;85.5
45383;DHT22;42455;51.660;5.824;2023-05-02T07:20:22;12.7;85.5
45383;DHT22;42455;51.660;5.824;2023-05-02T07:25:28;12.8;85.0
45383;DHT22;42455;51.660;5.824;2023-05-02T07:30:35;12.9;85.0
45383;DHT22;42455;51.660;5.824;2023-05-02T07:35:41;13.1;84.5
45383;DHT22;42455;51.660;5.824;2023-05-02T07:40:47;13.2;84.5
45383;DHT22;42455;51.660;5.824;2023-05-02T07:45:54;13.3;83.5
45383;DHT22;42455;51.660;5.824;2023-05-02T07:51:04;13.4;83.0
45383;DHT22;42455;51.660;5.824;2023-05-02T07:56:06;13.4;82.0
45383;DHT22;42455;51.660;5.824;2023-05-02T08:01:12;13.4;82.0
45383;DHT22;42455;51.660;5.824;2023-05-02T08:06:18;13.5;82.5
45383;DHT22;42455;51.660;5.824;2023-05-02T08:11:24;13.6;82.5
45383;DHT22;42455;51.660;5.824;2023-05-02T08:16:31;13.8;82.0
45383;DHT22;42455;51.660;5.824;2023-05-02T08:21:37;13.9;81.0
45383;DHT22;42455;51.660;5.824;2023-05-02T08:26:43;14.0;80.5
45383;DHT22;42455;51.660;5.824;2023-05-02T08:31:49;14.1;79.5
45383;DHT22;42455;51.660;5.824;2023-05-02T08:36:55;14.2;79.5
45383;DHT22;42455;51.660;5.824;2023-05-02T08:47:09;14.2;77.0
45383;DHT22;42455;51.660;5.824;2023-05-02T08:52:13;14.2;77.0
45383;DHT22;42455;51.660;5.824;2023-05-02T08:57:18;14.1;77.0
45383;DHT22;42455;51.660;5.824;2023-05-02T09:02:39;14.2;76.5
45383;DHT22;42455;51.660;5.824;2023-05-02T09:07:33;14.2;75.5
45383;DHT22;42455;51.660;5.824;2023-05-02T09:12:36;14.2;75.0
45383;DHT22;42455;51.660;5.824;2023-05-02T09:17:44;14.3;75.5
45383;DHT22;42455;51.660;5.824;2023-05-02T09:22:50;14.4;75.5
45383;DHT22;42455;51.660;5.824;2023-05-02T09:27:55;14.6;75.0
45383;DHT22;42455;51.660;5.824;2023-05-02T09:33:01;14.6;74.0
45383;DHT22;42455;51.660;5.824;2023-05-02T09:38:18;14.7;74.0
45383;DHT22;42455;51.660;5.824;2023-05-02T09:43:13;14.8;74.5
45383;DHT22;42455;51.660;5.824;2023-05-02T09:48:20;15.0;74.0
45383;DHT22;42455;51.660;5.824;2023-05-02T09:53:27;15.1;73.0
45383;DHT22;42455;51.660;5.824;2023-05-02T09:58:32;15.2;72.5
45383;DHT22;42455;51.660;5.824;2023-05-02T10:03:40;15.2;72.0
45383;DHT22;42455;51.660;5.824;2023-05-02T10:08:46;15.2;71.0
45383;DHT22;42455;51.660;5.824;2023-05-02T10:13:51;15.0;71.0
45383;DHT22;42455;51.660;5.824;2023-05-02T10:19:09;14.9;71.5
45383;DHT22;42455;51.660;5.824;2023-05-02T10:24:04;14.9;71.5
45383;DHT22;42455;51.660;5.824;2023-05-02T10:29:10;15.0;71.0
45383;DHT22;42455;51.660;5.824;2023-05-02T10:34:17;15.2;71.5
45383;DHT22;42455;51.660;5.824;2023-05-02T10:39:22;15.4;71.0
45383;DHT22;42455;51.660;5.824;2023-05-02T10:44:31;15.5;70.0
45383;DHT22;42455;51.660;5.824;2023-05-02T10:49:48;15.6;70.0
45383;DHT22;42455;51.660;5.824;2023-05-02T10:54:39;15.6;69.5
45383;DHT22;42455;51.660;5.824;2023-05-02T10:59:45;15.7;70.0
45383;DHT22;42455;51.660;5.824;2023-05-02T11:04:59;15.9;68.5
45383;DHT22;42455;51.660;5.824;2023-05-02T11:10:27;15.9;68.0
45383;DHT22;42455;51.660;5.824;2023-05-02T11:15:04;15.9;67.0
45383;DHT22;42455;51.660;5.824;2023-05-02T11:20:24;15.9;68.0
45383;DHT22;42455;51.660;5.824;2023-05-02T11:25:35;16.1;68.0
45383;DHT22;42455;51.660;5.824;2023-05-02T11:30:35;16.1;67.0
45383;DHT22;42455;51.660;5.824;2023-05-02T11:35:28;16.1;67.5
45383;DHT22;42455;51.660;5.824;2023-05-02T11:40:34;16.1;67.5
45383;DHT22;42455;51.660;5.824;2023-05-02T11:45:41;16.1;67.0
45383;DHT22;42455;51.660;5.824;2023-05-02T11:50:48;16.1;66.5
45383;DHT22;42455;51.660;5.824;2023-05-02T11:55:57;16.1;66.0
45383;DHT22;42455;51.660;5.824;2023-05-02T12:01:10;16.2;66.0
45383;DHT22;42455;51.660;5.824;2023-05-02T12:06:11;16.2;66.0
45383;DHT22;42455;51.660;5.824;2023-05-02T12:11:12;16.3;66.5
45383;DHT22;42455;51.660;5.824;2023-05-02T12:16:18;16.5;65.5
45383;DHT22;42455;51.660;5.824;2023-05-02T12:21:24;16.6;66.0
45383;DHT22;42455;51.660;5.824;2023-05-02T12:26:30;16.8;65.5
45383;DHT22;42455;51.660;5.824;2023-05-02T12:31:36;16.8;64.5
45383;DHT22;42455;51.660;5.824;2023-05-02T12:36:43;16.8;65.0
45383;DHT22;42455;51.660;5.824;2023-05-02T12:41:49;16.9;65.0
45383;DHT22;42455;51.660;5.824;2023-05-02T12:46:57;17.1;65.0
45383;DHT22;42455;51.660;5.824;2023-05-02T12:52:00;17.2;64.5
45383;DHT22;42455;51.660;5.824;2023-05-02T12:57:06;17.3;64.0
45383;DHT22;42455;51.660;5.824;2023-05-02T13:02:12;17.4;64.0
45383;DHT22;42455;51.660;5.824;2023-05-02T13:07:18;17.5;64.0
45383;DHT22;42455;51.660;5.824;2023-05-02T13:12:24;17.6;63.5
45383;DHT22;42455;51.660;5.824;2023-05-02T13:17:30;17.5;61.5
45383;DHT22;42455;51.660;5.824;2023-05-02T13:22:37;17.4;61.5
45383;DHT22;42455;51.660;5.824;2023-05-02T13:27:43;17.4;62.0
45383;DHT22;42455;51.660;5.824;2023-05-02T13:32:49;17.4;62.0
45383;DHT22;42455;51.660;5.824;2023-05-02T13:37:55;17.5;61.5
45383;DHT22;42455;51.660;5.824;2023-05-02T13:43:01;17.5;61.5
45383;DHT22;42455;51.660;5.824;2023-05-02T13:48:07;17.6;61.0
45383;DHT22;42455;51.660;5.824;2023-05-02T13:53:14;17.6;60.0
45383;DHT22;42455;51.660;5.824;2023-05-02T13:58:20;17.6;60.5
45383;DHT22;42455;51.660;5.824;2023-05-02T14:03:26;17.6;60.5
45383;DHT22;42455;51.660;5.824;2023-05-02T14:08:32;17.7;60.0
45383;DHT22;42455;51.660;5.824;2023-05-02T14:13:38;17.7;59.5
45383;DHT22;42455;51.660;5.824;2023-05-02T14:18:45;17.7;60.0
45383;DHT22;42455;51.660;5.824;2023-05-02T14:23:51;17.8;59.5
45383;DHT22;42455;51.660;5.824;2023-05-02T14:28:57;17.9;59.5
45383;DHT22;42455;51.660;5.824;2023-05-02T14:34:03;17.8;59.5
45383;DHT22;42455;51.660;5.824;2023-05-02T14:39:10;17.8;59.0
45383;DHT22;42455;51.660;5.824;2023-05-02T14:44:15;17.9;59.5
45383;DHT22;42455;51.660;5.824;2023-05-02T14:49:21;18.0;59.0
45383;DHT22;42455;51.660;5.824;2023-05-02T14:54:28;18.0;59.5
45383;DHT22;42455;51.660;5.824;2023-05-02T14:59:33;18.0;59.5
45383;DHT22;42455;51.660;5.824;2023-05-02T15:04:39;18.0;59.5
45383;DHT22;42455;51.660;5.824;2023-05-02T15:09:45;18.0;59.5
45383;DHT22;42455;51.660;5.824;2023-05-02T15:14:51;17.9;59.0
45383;DHT22;42455;51.660;5.824;2023-05-02T15:19:57;18.0;59.0
45383;DHT22;42455;51.660;5.824;2023-05-02T15:25:04;18.0;59.5
45383;DHT22;42455;51.660;5.824;2023-05-02T15:30:10;18.0;59.0
45383;DHT22;42455;51.660;5.824;2023-05-02T15:35:16;18.0;58.5
45383;DHT22;42455;51.660;5.824;2023-05-02T15:40:22;18.1;58.0
45383;DHT22;42455;51.660;5.824;2023-05-02T15:45:28;18.1;58.0
45383;DHT22;42455;51.660;5.824;2023-05-02T15:50:35;18.1;58.5
45383;DHT22;42455;51.660;5.824;2023-05-02T15:55:41;18.1;58.0
45383;DHT22;42455;51.660;5.824;2023-05-02T16:00:47;18.0;57.5
45383;DHT22;42455;51.660;5.824;2023-05-02T16:05:53;18.0;58.0
45383;DHT22;42455;51.660;5.824;2023-05-02T16:10:59;17.9;58.0
45383;DHT22;42455;51.660;5.824;2023-05-02T16:16:06;17.9;58.0
45383;DHT22;42455;51.660;5.824;2023-05-02T16:21:12;17.9;58.0
45383;DHT22;42455;51.660;5.824;2023-05-02T16:26:18;18.0;58.0
45383;DHT22;42455;51.660;5.824;2023-05-02T16:36:30;17.8;57.5
45383;DHT22;42455;51.660;5.824;2023-05-02T16:41:37;17.8;57.5
45383;DHT22;42455;51.660;5.824;2023-05-02T16:46:42;17.7;57.5
45383;DHT22;42455;51.660;5.824;2023-05-02T16:51:48;17.7;57.5
45383;DHT22;42455;51.660;5.824;2023-05-02T16:56:53;17.7;58.0
45383;DHT22;42455;51.660;5.824;2023-05-02T17:02:00;17.8;58.0
45383;DHT22;42455;51.660;5.824;2023-05-02T17:07:05;17.7;57.5
45383;DHT22;42455;51.660;5.824;2023-05-02T17:12:11;17.7;57.5
45383;DHT22;42455;51.660;5.824;2023-05-02T17:17:17;17.6;57.5
45383;DHT22;42455;51.660;5.824;2023-05-02T17:22:23;17.5;57.5
45383;DHT22;42455;51.660;5.824;2023-05-02T17:27:30;17.3;58.0
45383;DHT22;42455;51.660;5.824;2023-05-02T17:32:36;17.2;58.0
45383;DHT22;42455;51.660;5.824;2023-05-02T17:37:42;17.1;58.5
45383;DHT22;42455;51.660;5.824;2023-05-02T17:42:48;17.0;58.5
45383;DHT22;42455;51.660;5.824;2023-05-02T17:47:54;16.9;58.5
45383;DHT22;42455;51.660;5.824;2023-05-02T17:53:01;16.8;58.5
45383;DHT22;42455;51.660;5.824;2023-05-02T17:58:07;16.8;58.5
45383;DHT22;42455;51.660;5.824;2023-05-02T18:03:13;16.7;58.5
45383;DHT22;42455;51.660;5.824;2023-05-02T18:08:19;16.7;58.5
45383;DHT22;42455;51.660;5.824;2023-05-02T18:13:26;16.6;58.5
45383;DHT22;42455;51.660;5.824;2023-05-02T18:18:32;16.6;58.0
45383;DHT22;42455;51.660;5.824;2023-05-02T18:23:38;16.4;58.0
45383;DHT22;42455;51.660;5.824;2023-05-02T18:28:44;16.3;58.0
45383;DHT22;42455;51.660;5.824;2023-05-02T18:33:52;16.1;57.5
45383;DHT22;42455;51.660;5.824;2023-05-02T18:38:57;15.9;57.5
45383;DHT22;42455;51.660;5.824;2023-05-02T18:44:03;15.6;58.0
45383;DHT22;42455;51.660;5.824;2023-05-02T18:49:09;15.4;58.0
45383;DHT22;42455;51.660;5.824;2023-05-02T18:54:14;15.1;58.5
45383;DHT22;42455;51.660;5.824;2023-05-02T18:59:20;14.8;59.0
45383;DHT22;42455;51.660;5.824;2023-05-02T19:04:28;14.5;59.0
45383;DHT22;42455;51.660;5.824;2023-05-02T19:09:32;14.3;59.5
45383;DHT22;42455;51.660;5.824;2023-05-02T19:14:38;14.0;60.0
45383;DHT22;42455;51.660;5.824;2023-05-02T19:19:44;13.8;60.5
45383;DHT22;42455;51.660;5.824;2023-05-02T19:24:50;13.5;61.0
45383;DHT22;42455;51.660;5.824;2023-05-02T19:29:57;13.4;61.5
45383;DHT22;42455;51.660;5.824;2023-05-02T19:35:03;13.2;62.0
45383;DHT22;42455;51.660;5.824;2023-05-02T19:40:09;13.0;62.5
45383;DHT22;42455;51.660;5.824;2023-05-02T19:45:15;12.8;62.5
45383;DHT22;42455;51.660;5.824;2023-05-02T19:50:23;12.7;63.5
45383;DHT22;42455;51.660;5.824;2023-05-02T20:00:34;12.4;64.0
45383;DHT22;42455;51.660;5.824;2023-05-02T20:05:40;12.2;64.0
45383;DHT22;42455;51.660;5.824;2023-05-02T20:10:46;12.1;64.5
45383;DHT22;42455;51.660;5.824;2023-05-02T20:15:53;12.0;65.0
45383;DHT22;42455;51.660;5.824;2023-05-02T20:20:59;11.9;65.0
45383;DHT22;42455;51.660;5.824;2023-05-02T20:26:05;11.8;65.5
45383;DHT22;42455;51.660;5.824;2023-05-02T20:31:11;11.7;65.5
45383;DHT22;42455;51.660;5.824;2023-05-02T20:36:17;11.6;66.0
45383;DHT22;42455;51.660;5.824;2023-05-02T20:41:24;11.5;66.0
45383;DHT22;42455;51.660;5.824;2023-05-02T20:46:30;11.4;66.5
45383;DHT22;42455;51.660;5.824;2023-05-02T20:51:36;11.3;66.5
45383;DHT22;42455;51.660;5.824;2023-05-02T20:56:41;11.2;66.5
45383;DHT22;42455;51.660;5.824;2023-05-02T21:01:47;11.1;67.0
45383;DHT22;42455;51.660;5.824;2023-05-02T21:06:53;11.1;67.5
45383;DHT22;42455;51.660;5.824;2023-05-02T21:11:59;11.0;67.5
45383;DHT22;42455;51.660;5.824;2023-05-02T21:17:05;10.9;67.5
45383;DHT22;42455;51.660;5.824;2023-05-02T21:22:11;10.8;67.5
45383;DHT22;42455;51.660;5.824;2023-05-02T21:27:17;10.8;68.0
45383;DHT22;42455;51.660;5.824;2023-05-02T21:32:24;10.7;68.0
45383;DHT22;42455;51.660;5.824;2023-05-02T21:37:30;10.6;68.0
45383;DHT22;42455;51.660;5.824;2023-05-02T21:47:42;10.5;68.5
45383;DHT22;42455;51.660;5.824;2023-05-02T21:52:49;10.4;69.0
45383;DHT22;42455;51.660;5.824;2023-05-02T21:57:55;10.3;69.0
45383;DHT22;42455;51.660;5.824;2023-05-02T22:03:01;10.3;69.0
45383;DHT22;42455;51.660;5.824;2023-05-02T22:08:08;10.2;69.5
45383;DHT22;42455;51.660;5.824;2023-05-02T22:13:14;10.1;69.5
45383;DHT22;42455;51.660;5.824;2023-05-02T22:18:20;10.0;70.0
45383;DHT22;42455;51.660;5.824;2023-05-02T22:23:26;10.0;70.0
45383;DHT22;42455;51.660;5.824;2023-05-02T22:28:32;9.9;70.0
45383;DHT22;42455;51.660;5.824;2023-05-02T22:33:38;9.9;70.5
45383;DHT22;42455;51.660;5.824;2023-05-02T22:38:44;9.8;70.5
45383;DHT22;42455;51.660;5.824;2023-05-02T22:43:51;9.7;70.5
45383;DHT22;42455;51.660;5.824;2023-05-02T22:48:57;9.7;71.0
45383;DHT22;42455;51.660;5.824;2023-05-02T22:54:03;9.6;71.0
45383;DHT22;42455;51.660;5.824;2023-05-02T22:59:08;9.6;71.5
45383;DHT22;42455;51.660;5.824;2023-05-02T23:04:15;9.6;71.5
45383;DHT22;42455;51.660;5.824;2023-05-02T23:09:20;9.5;71.5
45383;DHT22;42455;51.660;5.824;2023-05-02T23:14:26;9.5;72.0
45383;DHT22;42455;51.660;5.824;2023-05-02T23:19:32;9.4;72.0
45383;DHT22;42455;51.660;5.824;2023-05-02T23:24:38;9.3;72.5
45383;DHT22;42455;51.660;5.824;2023-05-02T23:29:45;9.2;72.5
45383;DHT22;42455;51.660;5.824;2023-05-02T23:34:51;9.2;72.5
45383;DHT22;42455;51.660;5.824;2023-05-02T23:39:57;9.2;73.0
45383;DHT22;42455;51.660;5.824;2023-05-02T23:45:04;9.1;73.0
45383;DHT22;42455;51.660;5.824;2023-05-02T23:50:10;9.0;73.0
45383;DHT22;42455;51.660;5.824;2023-05-02T23:55:16;9.0;73.0
